createdAt,value
2023-02-01T00:02:28.163Z,20.40
2023-02-01T00:06:33.776Z,23.67
2023-02-01T00:10:39.335Z,15.83
2023-02-01T00:14:44.811Z,25.33
2023-02-01T00:18:52.796Z,11.27
2023-02-01T00:22:58.306Z,30.57
2023-02-01T00:27:03.812Z,14.00
2023-02-01T00:31:09.498Z,15.40
2023-02-01T00:35:15.211Z,25.87
2023-02-01T00:39:20.697Z,32.80
2023-02-01T00:43:26.393Z,21.33
2023-02-01T00:47:31.929Z,23.00
2023-02-01T00:51:37.589Z,19.03
2023-02-01T00:55:47.687Z,17.43
2023-02-01T00:59:53.154Z,17.93
2023-02-01T01:04:00.768Z,24.10
2023-02-01T01:08:06.235Z,19.17
2023-02-01T01:12:11.724Z,22.17
2023-02-01T01:16:18.922Z,14.27
2023-02-01T01:20:24.423Z,19.40
2023-02-01T01:24:29.860Z,12.77
2023-02-01T01:28:35.947Z,25.40
2023-02-01T01:32:42.623Z,25.63
2023-02-01T01:36:48.085Z,17.37
2023-02-01T01:40:54.752Z,26.50
2023-02-01T01:45:09.814Z,24.37
2023-02-01T01:49:23.374Z,18.67
2023-02-01T01:54:02.204Z,25.23
2023-02-01T01:58:13.399Z,20.20
2023-02-01T02:02:19.470Z,11.87
2023-02-01T02:06:56.459Z,19.30
2023-02-01T02:11:02.220Z,20.03
2023-02-01T02:15:10.260Z,25.40
2023-02-01T02:20:01.581Z,19.33
2023-02-01T02:24:09.975Z,16.33
2023-02-01T02:28:53.261Z,27.27
2023-02-01T02:33:32.869Z,14.73
2023-02-01T02:37:47.161Z,24.63
2023-02-01T02:42:23.474Z,23.93
2023-02-01T02:46:59.133Z,22.73
2023-02-01T02:51:41.527Z,24.37
2023-02-01T02:55:47.602Z,17.83
2023-02-01T03:00:13.141Z,26.80
2023-02-01T03:04:18.834Z,21.77
2023-02-01T03:08:30.299Z,20.20
2023-02-01T03:12:59.165Z,30.10
2023-02-01T03:17:18.080Z,31.07
2023-02-01T03:21:28.489Z,16.90
2023-02-01T03:25:35.700Z,25.10
2023-02-01T03:30:18.908Z,23.23
2023-02-01T03:34:24.580Z,22.20
2023-02-01T03:39:10.813Z,20.20
2023-02-01T03:43:20.190Z,29.87
2023-02-01T03:47:30.579Z,24.10
2023-02-01T03:51:39.736Z,27.37
2023-02-01T03:55:45.824Z,20.43
2023-02-01T03:59:51.361Z,22.53
2023-02-01T04:03:58.837Z,11.57
2023-02-01T04:08:06.121Z,7.77
2023-02-01T04:12:11.739Z,4.90
2023-02-01T04:16:37.587Z,9.33
2023-02-01T04:21:04.599Z,10.17
2023-02-01T04:25:31.292Z,15.77
2023-02-01T04:29:58.447Z,16.17
2023-02-01T04:34:25.810Z,10.77
2023-02-01T04:38:52.960Z,10.70
2023-02-01T04:43:18.924Z,2.53
2023-02-01T04:47:44.718Z,7.10
2023-02-01T04:52:10.713Z,9.73
2023-02-01T04:56:36.478Z,8.10
2023-02-01T05:01:06.820Z,7.70
2023-02-01T05:05:32.757Z,3.70
2023-02-01T05:09:58.603Z,3.80
2023-02-01T05:14:24.422Z,2.70
2023-02-01T05:18:50.251Z,4.17
2023-02-01T05:23:16.031Z,3.33
2023-02-01T05:27:41.884Z,4.90
2023-02-01T05:32:21.225Z,3.13
2023-02-01T05:36:48.313Z,4.77
2023-02-01T05:41:14.339Z,4.40
2023-02-01T05:45:40.078Z,4.60
2023-02-01T05:50:07.099Z,4.47
2023-02-01T05:54:32.893Z,3.03
2023-02-01T05:58:58.731Z,2.43
2023-02-01T06:03:24.636Z,2.00
2023-02-01T06:07:51.178Z,2.07
2023-02-01T06:12:16.971Z,3.77
2023-02-01T06:16:42.829Z,1.73
2023-02-01T06:21:09.815Z,4.63
2023-02-01T06:25:35.646Z,8.83
2023-02-01T06:30:01.535Z,9.63
2023-02-01T06:34:27.534Z,3.07
2023-02-01T06:38:53.473Z,3.40
2023-02-01T06:43:19.232Z,5.63
2023-02-01T06:47:45.128Z,6.23
2023-02-01T06:52:10.971Z,2.83
2023-02-01T06:56:36.730Z,4.73
2023-02-01T07:01:07.548Z,5.63
2023-02-01T07:05:33.537Z,3.50
2023-02-01T07:09:59.302Z,3.50
2023-02-01T07:14:25.073Z,7.77
2023-02-01T07:18:53.076Z,6.83
2023-02-01T07:23:18.986Z,11.47
2023-02-01T07:27:44.718Z,14.43
2023-02-01T07:32:10.570Z,10.83
2023-02-01T07:36:37.320Z,5.87
2023-02-01T07:41:05.869Z,16.97
2023-02-01T07:45:31.772Z,3.27
2023-02-01T07:49:57.892Z,6.30
2023-02-01T07:54:23.863Z,11.87
2023-02-01T07:58:51.841Z,8.90
2023-02-01T08:03:18.203Z,13.70
2023-02-01T08:07:43.974Z,17.10
2023-02-01T08:12:09.819Z,14.37
2023-02-01T08:16:37.495Z,10.30
2023-02-01T08:21:09.974Z,18.13
2023-02-01T08:25:37.130Z,5.23
2023-02-01T08:30:03.712Z,14.83
2023-02-01T08:34:29.940Z,13.67
2023-02-01T08:38:56.329Z,16.70
2023-02-01T08:43:22.313Z,14.57
2023-02-01T08:47:48.470Z,14.20
2023-02-01T08:52:16.203Z,19.17
2023-02-01T08:56:44.593Z,10.13
2023-02-01T09:01:16.257Z,17.00
2023-02-01T09:05:49.501Z,17.43
2023-02-01T09:10:18.937Z,20.77
2023-02-01T09:14:46.883Z,19.37
2023-02-01T09:19:25.940Z,13.50
2023-02-01T09:23:53.151Z,15.47
2023-02-01T09:28:19.928Z,17.80
2023-02-01T09:32:26.155Z,14.97
2023-02-01T09:36:33.016Z,14.20
2023-02-01T09:40:47.704Z,14.10
2023-02-01T09:45:08.099Z,20.67
2023-02-01T09:49:21.178Z,10.97
2023-02-01T09:53:37.569Z,18.50
2023-02-01T09:58:11.344Z,11.00
2023-02-01T10:02:26.821Z,13.03
2023-02-01T10:06:59.028Z,14.63
2023-02-01T10:11:31.599Z,12.97
2023-02-01T10:16:26.840Z,8.57
2023-02-01T10:21:10.175Z,18.43
2023-02-01T10:25:55.302Z,15.03
2023-02-01T10:30:14.713Z,13.17
2023-02-01T10:34:28.439Z,19.17
2023-02-01T10:38:34.774Z,24.03
2023-02-01T10:42:41.573Z,12.20
2023-02-01T10:46:47.304Z,14.23
2023-02-01T10:51:22.384Z,16.80
2023-02-01T10:55:42.428Z,21.93
2023-02-01T10:59:48.014Z,15.60
2023-02-01T11:04:04.959Z,16.17
2023-02-01T11:08:17.981Z,23.70
2023-02-01T11:12:33.690Z,17.83
2023-02-01T11:16:40.355Z,16.37
2023-02-01T11:20:50.337Z,17.40
2023-02-01T11:24:56.780Z,9.10
2023-02-01T11:29:14.310Z,15.53
2023-02-01T11:33:26.066Z,15.57
2023-02-01T11:37:35.722Z,15.40
2023-02-01T11:42:06.306Z,8.47
2023-02-01T11:46:25.977Z,11.83
2023-02-01T11:50:41.853Z,5.83
2023-02-01T11:55:02.671Z,8.77
2023-02-01T11:59:57.161Z,9.50
2023-02-01T12:04:52.893Z,7.00
2023-02-01T12:09:28.530Z,12.87
2023-02-01T12:14:07.223Z,10.20
2023-02-01T12:18:25.474Z,11.73
2023-02-01T12:22:50.499Z,10.90
2023-02-01T12:27:25.502Z,16.17
2023-02-01T12:32:14.802Z,25.27
2023-02-01T12:36:33.785Z,11.10
2023-02-01T12:41:08.480Z,5.47
2023-02-01T12:45:31.451Z,5.90
2023-02-01T12:49:56.567Z,3.43
2023-02-01T12:54:16.113Z,7.43
2023-02-01T12:58:48.905Z,7.73
2023-02-01T13:03:35.696Z,5.27
2023-02-01T13:07:56.486Z,1.93
2023-02-01T13:12:27.807Z,3.57
2023-02-01T13:16:40.287Z,5.93
2023-02-01T13:20:56.718Z,3.87
2023-02-01T13:25:17.121Z,7.60
2023-02-01T13:29:25.902Z,10.00
2023-02-01T13:34:07.353Z,5.63
2023-02-01T13:39:04.093Z,7.37
2023-02-01T13:43:31.565Z,5.23
2023-02-01T13:47:45.783Z,4.97
2023-02-01T13:51:56.540Z,2.63
2023-02-01T13:56:14.104Z,2.30
2023-02-01T14:00:38.844Z,2.87
2023-02-01T14:04:51.254Z,5.17
2023-02-01T14:09:17.783Z,1.20
2023-02-01T14:13:33.943Z,1.47
2023-02-01T14:17:40.012Z,2.10
2023-02-01T14:22:02.403Z,3.53
2023-02-01T14:26:15.524Z,7.00
2023-02-01T14:30:21.673Z,7.77
2023-02-01T14:34:47.945Z,4.20
2023-02-01T14:38:54.294Z,4.60
2023-02-01T14:42:59.787Z,6.07
2023-02-01T14:47:23.725Z,4.33
2023-02-01T14:51:31.426Z,5.57
2023-02-01T14:56:05.748Z,6.10
2023-02-01T15:00:19.795Z,3.40
2023-02-01T15:04:28.091Z,7.10
2023-02-01T15:08:40.533Z,8.50
2023-02-01T15:12:49.420Z,5.10
2023-02-01T15:16:55.019Z,6.83
2023-02-01T15:21:09.734Z,9.10
2023-02-01T15:25:37.737Z,12.03
2023-02-01T15:29:43.365Z,6.43
2023-02-01T15:33:58.543Z,11.07
2023-02-01T15:38:25.148Z,17.70
2023-02-01T15:42:30.866Z,8.30
2023-02-01T15:46:41.019Z,12.97
2023-02-01T15:50:46.686Z,12.27
2023-02-01T15:54:59.154Z,11.60
2023-02-01T15:59:16.411Z,15.33
2023-02-01T16:03:43.385Z,14.20
2023-02-01T16:08:11.834Z,11.57
2023-02-01T16:12:47.774Z,11.03
2023-02-01T16:16:58.747Z,14.80
2023-02-01T16:21:04.594Z,13.03
2023-02-01T16:25:10.386Z,12.90
2023-02-01T16:29:17.322Z,14.43
2023-02-01T16:33:24.081Z,18.20
2023-02-01T16:37:33.203Z,18.40
2023-02-01T16:41:40.392Z,22.03
2023-02-01T16:45:51.259Z,17.23
2023-02-01T16:49:56.951Z,20.90
2023-02-01T16:54:02.947Z,11.23
2023-02-01T16:58:08.729Z,20.57
2023-02-01T17:02:23.300Z,17.47
2023-02-01T17:06:33.561Z,16.87
2023-02-01T17:10:39.879Z,28.60
2023-02-01T17:14:45.661Z,29.17
2023-02-01T17:19:05.741Z,23.43
2023-02-01T17:23:11.711Z,20.70
2023-02-01T17:27:18.755Z,8.80
2023-02-01T17:31:24.447Z,43.67
2023-02-01T17:35:32.304Z,22.50
2023-02-01T17:39:55.840Z,19.47
2023-02-01T17:44:01.785Z,21.57
2023-02-01T17:48:08.875Z,22.50
2023-02-01T17:52:18.727Z,20.37
2023-02-01T17:56:25.837Z,26.23
2023-02-01T18:00:31.554Z,32.80
2023-02-01T18:04:37.813Z,20.10
2023-02-01T18:08:45.567Z,24.80
2023-02-01T18:12:51.654Z,31.47
2023-02-01T18:16:57.243Z,14.40
2023-02-01T18:21:02.745Z,21.23
2023-02-01T18:25:30.252Z,16.70
2023-02-01T18:29:35.796Z,33.77
2023-02-01T18:33:41.382Z,15.27
2023-02-01T18:37:48.368Z,22.83
2023-02-01T18:41:53.877Z,15.70
2023-02-01T18:45:59.454Z,20.30
2023-02-01T18:50:09.072Z,20.50
2023-02-01T18:54:14.817Z,19.33
2023-02-01T18:58:20.498Z,21.77
2023-02-01T19:02:26.511Z,23.77
2023-02-01T19:06:33.016Z,19.27
2023-02-01T19:10:38.814Z,22.20
2023-02-01T19:14:44.378Z,22.20
2023-02-01T19:18:53.687Z,17.17
2023-02-01T19:22:59.549Z,13.73
2023-02-01T19:27:05.092Z,19.53
2023-02-01T19:31:10.747Z,18.70
2023-02-01T19:35:19.671Z,10.67
2023-02-01T19:39:25.302Z,15.90
2023-02-01T19:43:30.940Z,16.50
2023-02-01T19:47:36.887Z,12.00
2023-02-01T19:51:44.670Z,8.80
2023-02-01T19:55:50.571Z,16.83
2023-02-01T19:59:56.725Z,20.33
2023-02-01T20:04:06.878Z,16.60
2023-02-01T20:08:12.407Z,12.90
2023-02-01T20:12:18.915Z,10.70
2023-02-01T20:16:24.528Z,8.60
2023-02-01T20:20:30.312Z,8.57
2023-02-01T20:24:36.024Z,8.53
2023-02-01T20:28:42.466Z,6.70
2023-02-01T20:32:52.121Z,14.43
2023-02-01T20:36:57.670Z,17.20
2023-02-01T20:41:09.200Z,8.43
2023-02-01T20:45:15.038Z,13.47
2023-02-01T20:49:21.024Z,9.87
2023-02-01T20:53:27.249Z,15.20
2023-02-01T20:57:33.118Z,15.70
2023-02-01T21:01:51.068Z,8.30
2023-02-01T21:05:59.837Z,17.63
2023-02-01T21:10:07.236Z,15.50
2023-02-01T21:14:12.904Z,25.20
2023-02-01T21:18:18.791Z,18.10
2023-02-01T21:22:24.456Z,18.87
2023-02-01T21:26:40.933Z,15.70
2023-02-01T21:30:46.709Z,6.23
2023-02-01T21:34:52.819Z,19.77
2023-02-01T21:39:03.656Z,18.07
2023-02-01T21:43:09.197Z,13.07
2023-02-01T21:47:17.403Z,21.70
2023-02-01T21:51:23.338Z,15.97
2023-02-01T21:55:28.905Z,15.67
2023-02-01T21:59:36.127Z,18.93
2023-02-01T22:03:41.690Z,16.17
2023-02-01T22:07:47.142Z,11.60
2023-02-01T22:11:54.912Z,18.50
2023-02-01T22:16:00.469Z,12.30
2023-02-01T22:20:06.693Z,21.20
2023-02-01T22:24:16.773Z,22.57
2023-02-01T22:28:32.003Z,16.53
2023-02-01T22:32:39.045Z,20.40
2023-02-01T22:36:44.804Z,23.00
2023-02-01T22:40:58.993Z,25.10
2023-02-01T22:45:04.860Z,12.73
2023-02-01T22:49:10.510Z,21.20
2023-02-01T22:53:15.971Z,24.20
2023-02-01T22:57:21.579Z,14.17
2023-02-01T23:01:28.021Z,21.23
2023-02-01T23:05:33.706Z,10.97
2023-02-01T23:09:39.230Z,16.50
2023-02-01T23:13:44.676Z,16.10
2023-02-01T23:17:50.158Z,17.17
2023-02-01T23:21:55.833Z,17.60
2023-02-01T23:26:01.420Z,20.80
2023-02-01T23:30:08.302Z,16.53
2023-02-01T23:34:13.821Z,14.20
2023-02-01T23:38:19.251Z,21.33
2023-02-01T23:42:26.796Z,16.17
2023-02-01T23:46:36.085Z,23.10
2023-02-01T23:50:41.600Z,15.67
2023-02-01T23:54:47.316Z,11.33
2023-02-01T23:58:54.235Z,6.17
